Time;durP1;ratioP1;P1;durP2;ratioP2;P2;SDS_P1;SDS_P2;PMS_P1;PMS_P2;Temp;Humidity;BMP_temperature;BMP_pressure;BME280_temperature;BME280_humidity;BME280_pressure;Samples;Min_cycle;Max_cycle;Signal;HPM_P1;HPM_P2
2024/02/11 00:01:24;;;;;;;18.00;10.15;;;10.40;99.90;;;10.63;82.09;97609.06;5051267;28;20167;-87
2024/02/11 00:03:55;;;;;;;14.18;10.13;;;10.40;99.90;;;10.60;81.73;97601.63;5018937;28;20092;-87
2024/02/11 00:06:24;;;;;;;14.30;9.65;;;10.40;99.90;;;10.58;81.60;97600.03;5017955;28;20103;-87
2024/02/11 00:08:51;;;;;;;16.58;10.05;;;10.30;99.90;;;10.55;81.46;97587.28;5017939;28;20065;-87
2024/02/11 00:11:21;;;;;;;15.93;10.38;;;10.30;99.90;;;10.56;81.65;97590.75;5035583;28;20100;-87
2024/02/11 00:13:48;;;;;;;17.55;10.45;;;10.30;99.90;;;10.54;81.47;97587.53;5035737;28;20128;-87
2024/02/11 00:16:16;;;;;;;15.48;10.20;;;10.30;99.90;;;10.52;81.08;97584.38;5035941;28;20386;-87
2024/02/11 00:18:44;;;;;;;14.35;9.68;;;10.20;99.90;;;10.48;81.20;97584.13;5018128;28;20045;-87
2024/02/11 00:21:13;;;;;;;16.13;10.80;;;10.20;99.90;;;10.45;80.47;97573.28;5034093;28;20076;-87
2024/02/11 00:23:42;;;;;;;17.08;10.40;;;10.20;99.90;;;10.41;80.49;97582.91;5035649;28;20404;-87
2024/02/11 00:26:10;;;;;;;16.00;9.90;;;10.10;99.90;;;10.39;80.60;97577.03;5017822;28;20497;-87
2024/02/11 00:28:39;;;;;;;14.68;9.60;;;10.10;99.90;;;10.38;80.52;97584.25;5051003;28;20057;-87
2024/02/11 00:31:06;;;;;;;15.40;10.05;;;10.10;99.90;;;10.34;80.32;97580.53;5035589;28;20176;-87
2024/02/11 00:33:33;;;;;;;16.02;10.38;;;10.10;99.90;;;10.31;80.60;97583.78;5035705;28;20041;-87
2024/02/11 00:36:01;;;;;;;19.10;12.07;;;10.10;99.90;;;10.31;81.04;97587.25;5001292;28;20046;-87
2024/02/11 00:38:30;;;;;;;19.05;10.75;;;10.10;99.90;;;10.23;81.67;97589.69;5050457;28;20049;-87
2024/02/11 00:40:58;;;;;;;14.13;9.90;;;10.00;99.90;;;10.25;81.80;97601.69;5050373;28;20049;-87
2024/02/11 00:43:25;;;;;;;12.50;9.38;;;10.00;99.90;;;10.26;81.65;97603.28;5000903;28;20057;-87
2024/02/11 00:45:55;;;;;;;16.38;10.98;;;10.10;99.90;;;10.22;82.00;97599.53;5050922;28;20053;-87
2024/02/11 00:48:23;;;;;;;15.10;10.27;;;10.00;99.90;;;10.26;82.19;97597.94;5035337;28;20041;-87
2024/02/11 00:50:51;;;;;;;14.32;9.23;;;10.10;99.90;;;10.26;82.03;97603.28;5035658;28;20045;-87
2024/02/11 00:53:21;;;;;;;16.75;10.30;;;10.10;99.90;;;10.28;82.12;97601.09;5018315;28;20044;-87
2024/02/11 00:55:48;;;;;;;14.07;9.38;;;10.10;99.90;;;10.29;82.06;97596.56;5050756;28;20095;-87
2024/02/11 00:58:16;;;;;;;13.38;10.07;;;10.10;99.90;;;10.29;81.93;97597.38;5034953;28;20050;-87
2024/02/11 01:00:45;;;;;;;16.15;10.10;;;10.10;99.90;;;10.31;81.98;97594.44;5017657;28;20077;-87
2024/02/11 01:03:14;;;;;;;15.45;10.65;;;10.10;99.90;;;10.31;82.07;97597.91;5035216;28;20133;-87
2024/02/11 01:05:43;;;;;;;14.25;9.70;;;10.10;99.90;;;10.31;81.91;97597.91;5050677;28;20104;-87
2024/02/11 01:08:11;;;;;;;19.02;11.00;;;10.10;99.90;;;10.30;81.81;97598.97;5050437;28;20049;-87
2024/02/11 01:10:39;;;;;;;12.98;10.10;;;10.10;99.90;;;10.30;81.91;97592.84;5035227;28;20476;-87
2024/02/11 01:13:07;;;;;;;18.35;10.63;;;10.10;99.90;;;10.30;81.94;97591.00;5016838;28;20042;-87
2024/02/11 01:15:35;;;;;;;15.00;10.63;;;10.10;99.90;;;10.32;81.95;97596.03;5000427;28;20057;-87
2024/02/11 01:18:03;;;;;;;18.60;10.57;;;10.10;99.90;;;10.31;82.18;97587.25;5016770;28;20452;-87
2024/02/11 01:20:32;;;;;;;14.40;10.88;;;10.10;99.90;;;10.32;82.20;97591.50;5034401;28;20095;-87
2024/02/11 01:23:03;;;;;;;15.77;10.25;;;10.10;99.90;;;10.32;82.19;97590.69;5033265;28;20095;-87
2024/02/11 01:25:31;;;;;;;15.23;10.30;;;10.10;99.90;;;10.32;82.17;97594.16;5034495;28;20505;-87
2024/02/11 01:27:58;;;;;;;16.60;10.60;;;10.10;99.90;;;10.29;82.02;97597.38;5016343;28;20041;-87
2024/02/11 01:30:26;;;;;;;23.63;10.40;;;10.10;99.90;;;10.29;82.03;97597.38;5000284;28;20049;-87
2024/02/11 01:32:57;;;;;;;14.18;9.38;;;10.10;99.90;;;10.26;81.95;97595.28;5034116;28;20060;-87
2024/02/11 01:35:28;;;;;;;16.55;10.13;;;10.00;99.90;;;10.24;82.27;97594.75;5034238;28;20045;-87
2024/02/11 01:37:57;;;;;;;16.15;9.80;;;10.00;99.90;;;10.25;82.25;97596.34;5016537;28;20061;-87
2024/02/11 01:40:24;;;;;;;17.38;10.25;;;10.00;99.90;;;10.26;82.19;97589.16;5016511;28;20053;-87
2024/02/11 01:42:58;;;;;;;14.50;10.60;;;10.00;99.90;;;10.26;82.27;97587.28;5034308;28;20046;-87
2024/02/11 01:45:25;;;;;;;16.67;9.77;;;10.00;99.90;;;10.27;82.17;97593.41;5016496;28;20049;-87
2024/02/11 01:47:54;;;;;;;16.10;9.82;;;10.00;99.90;;;10.25;81.98;97591.03;5017057;28;20096;-87
2024/02/11 01:50:22;;;;;;;16.23;10.77;;;10.00;99.90;;;10.25;82.13;97593.69;5016478;28;20037;-87
2024/02/11 01:52:52;;;;;;;19.10;11.95;;;10.00;99.90;;;10.27;82.41;97604.06;5034395;28;20077;-87
2024/02/11 01:55:22;;;;;;;17.58;10.85;;;10.10;99.90;;;10.28;82.37;97595.78;5016076;28;20069;-87
2024/02/11 01:57:52;;;;;;;18.30;11.60;;;10.10;99.90;;;10.27;82.10;97586.22;5034158;28;20061;-87
2024/02/11 02:00:21;;;;;;;16.35;11.63;;;10.10;99.90;;;10.27;82.16;97594.19;5033158;28;20096;-87
2024/02/11 02:02:55;;;;;;;16.10;11.23;;;10.00;99.90;;;10.27;82.25;97604.84;5034484;28;20041;-87
2024/02/11 02:05:23;;;;;;;16.25;10.98;;;10.00;99.90;;;10.27;82.28;97602.19;5032222;28;20042;-87
2024/02/11 02:07:54;;;;;;;16.10;10.63;;;10.10;99.90;;;10.28;82.44;97605.66;4999456;28;20077;-87
2024/02/11 02:10:23;;;;;;;16.02;10.80;;;10.00;99.90;;;10.27;82.28;97596.06;5048876;28;20049;-87
2024/02/11 02:12:50;;;;;;;15.02;11.02;;;10.10;99.90;;;10.26;82.31;97603.28;5016294;28;20111;-87
2024/02/11 02:15:18;;;;;;;19.27;11.73;;;10.00;99.90;;;10.26;82.58;97586.50;5048493;28;20100;-87
2024/02/11 02:17:47;;;;;;;16.23;11.10;;;10.00;99.90;;;10.26;82.62;97587.28;5033700;28;20072;-87
2024/02/11 02:20:15;;;;;;;16.40;10.50;;;10.00;99.90;;;10.26;82.58;97591.81;5049014;28;20111;-87
2024/02/11 02:22:47;;;;;;;16.55;11.07;;;10.00;99.90;;;10.24;82.60;97592.09;5033602;28;20044;-87
2024/02/11 02:25:15;;;;;;;17.17;10.68;;;10.00;99.90;;;10.25;82.55;97590.25;5032622;28;20117;-87
2024/02/11 02:27:43;;;;;;;15.75;11.23;;;10.00;99.90;;;10.23;82.58;97581.69;5015841;28;20045;-87
2024/02/11 02:30:12;;;;;;;16.10;10.77;;;10.00;99.90;;;10.24;82.62;97586.75;5031856;28;20042;-87
2024/02/11 02:32:40;;;;;;;15.13;10.25;;;10.00;99.90;;;10.25;82.65;97590.25;4999861;28;20055;-87
2024/02/11 02:35:09;;;;;;;14.60;10.88;;;10.00;99.90;;;10.24;82.51;97585.97;5032075;28;20099;-87
2024/02/11 02:37:36;;;;;;;14.93;9.93;;;10.00;99.90;;;10.23;82.56;97581.69;5033215;28;20046;-87
2024/02/11 02:40:07;;;;;;;17.27;11.05;;;10.00;99.90;;;10.22;82.72;97578.22;5031935;28;20049;-87
2024/02/11 02:42:35;;;;;;;16.42;11.02;;;10.00;99.90;;;10.24;82.65;97588.63;5015615;28;20123;-87
2024/02/11 02:45:03;;;;;;;15.05;9.60;;;10.00;99.90;;;10.22;82.70;97578.22;5015882;28;20140;-87
2024/02/11 02:47:30;;;;;;;16.58;10.80;;;10.00;99.90;;;10.22;82.64;97580.09;5015368;28;20042;-87
2024/02/11 02:49:58;;;;;;;18.98;10.23;;;10.00;99.90;;;10.20;82.74;97576.91;5033373;28;20493;-86
2024/02/11 02:52:26;;;;;;;15.75;10.10;;;10.00;99.90;;;10.20;82.95;97583.06;5048521;28;20487;-87
2024/02/11 02:54:55;;;;;;;16.70;10.25;;;10.00;99.90;;;10.20;82.94;97580.41;5033038;28;20049;-87
2024/02/11 02:57:24;;;;;;;16.30;10.20;;;10.00;99.90;;;10.19;82.88;97573.44;5015478;28;20048;-87
2024/02/11 02:59:51;;;;;;;17.33;10.40;;;10.00;99.90;;;10.20;83.08;97575.06;5015526;28;20050;-87
2024/02/11 03:02:20;;;;;;;12.43;9.10;;;10.00;99.90;;;10.23;83.14;97571.81;5033270;28;20046;-87
2024/02/11 03:04:47;;;;;;;13.52;9.88;;;10.10;99.90;;;10.23;82.93;97573.69;5031345;28;20421;-87
2024/02/11 03:07:15;;;;;;;15.98;9.40;;;10.10;99.90;;;10.24;82.96;97577.97;5052239;28;20048;-87
2024/02/11 03:09:42;;;;;;;12.50;8.82;;;10.10;99.90;;;10.24;83.04;97577.97;5019000;28;20478;-87
2024/02/11 03:12:10;;;;;;;13.75;8.60;;;10.00;99.90;;;10.25;83.17;97585.72;5003075;28;20042;-87
2024/02/11 03:14:40;;;;;;;12.50;8.50;;;10.00;99.90;;;10.26;82.98;97581.97;5036907;28;20072;-87
2024/02/11 03:17:07;;;;;;;12.10;8.02;;;10.10;99.90;;;10.27;83.18;97580.88;5036983;28;20037;-87
2024/02/11 03:19:34;;;;;;;11.70;7.55;;;10.10;99.90;;;10.27;82.81;97580.88;5018903;28;20555;-87
2024/02/11 03:22:02;;;;;;;11.40;7.00;;;10.10;99.90;;;10.28;82.90;97581.66;5051866;28;20560;-87
2024/02/11 03:24:29;;;;;;;11.30;7.40;;;10.10;99.90;;;10.29;83.07;97581.38;5036643;28;20116;-87
2024/02/11 03:26:57;;;;;;;11.43;6.80;;;10.10;99.90;;;10.31;83.24;97584.56;5018974;28;20045;-87
2024/02/11 03:29:25;;;;;;;10.45;7.10;;;10.10;99.90;;;10.31;83.02;97581.91;5035369;28;20076;-87
2024/02/11 03:31:55;;;;;;;8.90;6.20;;;10.20;99.90;;;10.33;83.31;97576.28;5036712;28;20053;-87
2024/02/11 03:34:25;;;;;;;10.43;6.43;;;10.20;99.90;;;10.34;83.49;97574.44;5019022;28;20128;-87
2024/02/11 03:36:53;;;;;;;9.32;6.22;;;10.20;99.90;;;10.36;83.38;97574.97;5035520;28;20045;-87
2024/02/11 03:39:21;;;;;;;9.95;5.47;;;10.20;99.90;;;10.38;83.45;97578.13;5002294;28;20049;-87
2024/02/11 03:41:49;;;;;;;9.25;6.00;;;10.20;99.90;;;10.39;83.21;97574.38;4986012;28;20467;-87
2024/02/11 03:44:16;;;;;;;9.70;6.03;;;10.20;99.90;;;10.38;83.27;97580.78;5036303;28;20574;-87
2024/02/11 03:46:46;;;;;;;11.25;6.88;;;10.20;99.90;;;10.37;83.22;97584.53;5035049;28;20049;-87
2024/02/11 03:49:16;;;;;;;11.95;6.25;;;10.20;99.90;;;10.35;83.48;97595.47;5034557;28;20056;-87
2024/02/11 03:51:43;;;;;;;9.40;6.13;;;10.20;99.90;;;10.37;83.63;97592.53;5018654;28;20076;-87
2024/02/11 03:54:11;;;;;;;8.63;5.80;;;10.20;99.90;;;10.36;83.60;97591.72;5018467;28;20136;-87
2024/02/11 03:56:41;;;;;;;8.65;5.60;;;10.20;99.90;;;10.35;83.33;97595.47;5018769;28;20080;-87
2024/02/11 03:59:12;;;;;;;10.70;5.63;;;10.20;99.90;;;10.35;83.53;97597.34;5035816;28;20132;-87
2024/02/11 04:01:39;;;;;;;9.32;5.50;;;10.20;99.90;;;10.36;83.56;97599.72;5002087;28;20296;-87
2024/02/11 04:04:07;;;;;;;8.52;5.50;;;10.20;99.90;;;10.38;83.38;97599.44;4985422;28;20045;-87
2024/02/11 04:06:36;;;;;;;7.28;5.00;;;10.20;99.90;;;10.37;83.32;97603.97;5035682;28;20109;-87
2024/02/11 04:09:08;;;;;;;8.25;5.43;;;10.20;99.90;;;10.37;83.63;97601.31;5018206;28;20493;-87
2024/02/11 04:11:36;;;;;;;10.50;5.75;;;10.20;99.90;;;10.39;83.56;97609.00;5035629;28;20046;-87
2024/02/11 04:14:05;;;;;;;9.45;5.68;;;10.20;99.90;;;10.38;83.33;97604.75;4969469;28;20460;-87
2024/02/11 04:16:33;;;;;;;13.13;5.85;;;10.20;99.90;;;10.37;83.61;97605.84;5035296;28;20065;-87
2024/02/11 04:19:01;;;;;;;9.20;5.88;;;10.20;99.90;;;10.38;83.74;97613.53;5033482;28;20104;-87
2024/02/11 04:21:40;;;;;;;10.20;6.53;;;10.20;99.90;;;10.40;83.72;97621.28;5018479;28;20045;-87
2024/02/11 04:24:09;;;;;;;10.35;6.20;;;10.20;99.90;;;10.40;83.88;97608.75;5019257;28;20033;-87
2024/02/11 04:26:39;;;;;;;12.10;6.70;;;10.30;99.90;;;10.42;83.84;97619.13;5035311;28;20049;-87
2024/02/11 04:29:12;;;;;;;13.15;6.70;;;10.30;99.90;;;10.42;83.88;97616.44;5035674;28;20045;-87
2024/02/11 04:31:40;;;;;;;11.20;6.88;;;10.30;99.90;;;10.42;84.34;97616.44;5017851;28;20148;-87
2024/02/11 04:34:08;;;;;;;11.52;6.53;;;10.30;99.90;;;10.44;84.31;97614.28;5035386;28;20155;-87
2024/02/11 04:36:38;;;;;;;10.90;6.20;;;10.30;99.90;;;10.45;84.14;97610.56;5017775;28;20045;-87
2024/02/11 04:39:07;;;;;;;8.50;5.60;;;10.30;99.90;;;10.46;84.19;97604.16;5035741;28;20409;-87
2024/02/11 04:41:37;;;;;;;9.98;6.80;;;10.30;99.90;;;10.47;84.07;97622.53;5035204;28;20054;-87
2024/02/11 04:44:06;;;;;;;11.27;6.47;;;10.40;99.90;;;10.47;83.98;97619.06;5034808;28;20053;-87
2024/02/11 04:46:34;;;;;;;8.80;6.03;;;10.30;99.90;;;10.48;84.15;97612.66;4985345;28;20080;-87
2024/02/11 04:49:01;;;;;;;12.90;6.60;;;10.30;99.90;;;10.48;84.09;97615.31;5050825;28;20084;-87
2024/02/11 04:51:29;;;;;;;9.15;6.47;;;10.30;99.90;;;10.48;84.23;97621.44;5035236;28;20048;-87
2024/02/11 04:53:59;;;;;;;10.13;6.50;;;10.30;99.90;;;10.49;84.08;97616.91;5017464;28;20569;-87
2024/02/11 04:56:29;;;;;;;12.45;5.93;;;10.30;99.90;;;10.48;84.10;97610.00;5034681;28;20057;-87
2024/02/11 04:59:01;;;;;;;9.90;6.15;;;10.30;99.90;;;10.48;84.07;97620.66;5033121;28;20100;-87
2024/02/11 05:01:29;;;;;;;8.15;5.90;;;10.30;99.90;;;10.48;84.13;97624.09;5032749;28;20095;-87
2024/02/11 05:03:59;;;;;;;12.13;6.22;;;10.30;99.90;;;10.48;84.08;97616.13;5017362;28;20041;-87
2024/02/11 05:06:27;;;;;;;7.95;5.82;;;10.40;99.90;;;10.50;84.14;97623.84;5017300;28;20045;-87
2024/02/11 05:08:55;;;;;;;10.23;6.00;;;10.40;99.90;;;10.51;84.15;97617.44;5050706;28;20053;-87
2024/02/11 05:11:24;;;;;;;9.02;5.45;;;10.40;99.90;;;10.52;83.90;97616.34;5000931;28;20091;-87
2024/02/11 05:13:51;;;;;;;7.60;5.22;;;10.40;99.90;;;10.52;84.14;97624.34;5050133;28;20096;-87
2024/02/11 05:16:18;;;;;;;8.95;5.38;;;10.40;99.90;;;10.51;83.81;97628.88;5034372;28;20095;-87
2024/02/11 05:18:47;;;;;;;10.88;5.63;;;10.40;99.90;;;10.48;83.87;97624.09;5016883;28;20057;-87
2024/02/11 05:21:15;;;;;;;10.88;5.50;;;10.40;99.90;;;10.49;83.88;97627.56;5001028;28;20057;-87
2024/02/11 05:23:47;;;;;;;8.00;5.38;;;10.40;99.90;;;10.51;84.01;97625.44;5049583;28;20489;-87
2024/02/11 05:26:17;;;;;;;7.78;5.28;;;10.40;99.90;;;10.50;84.01;97629.97;5016684;28;20052;-87
2024/02/11 05:28:46;;;;;;;10.33;6.17;;;10.40;99.90;;;10.50;84.04;97629.19;5016879;28;20076;-87
2024/02/11 05:31:20;;;;;;;8.35;4.63;;;10.40;99.90;;;10.48;84.14;97634.75;5034073;28;20136;-87
2024/02/11 05:33:48;;;;;;;9.32;5.80;;;10.30;99.90;;;10.47;84.11;97635.06;5017117;28;20049;-87
2024/02/11 05:36:16;;;;;;;7.80;5.50;;;10.30;99.90;;;10.46;84.14;97636.13;5049195;28;20041;-87
2024/02/11 05:38:43;;;;;;;9.23;5.78;;;10.30;99.90;;;10.46;84.32;97644.13;5033301;28;20468;-87
2024/02/11 05:41:12;;;;;;;9.60;5.78;;;10.30;99.90;;;10.44;84.14;97633.75;5034229;28;20124;-88
2024/02/11 05:43:39;;;;;;;8.30;5.68;;;10.30;99.90;;;10.45;84.13;97645.22;5016788;28;20128;-88
2024/02/11 05:46:09;;;;;;;8.52;5.82;;;10.30;99.90;;;10.45;84.40;97642.53;5016581;28;20041;-87
2024/02/11 05:48:37;;;;;;;11.75;6.18;;;10.30;99.90;;;10.42;84.72;97645.75;5032531;28;20053;-87
2024/02/11 05:51:05;;;;;;;12.13;5.70;;;10.30;99.90;;;10.42;84.73;97654.53;5033663;28;20045;-87
2024/02/11 05:53:33;;;;;;;8.80;5.88;;;10.30;99.90;;;10.41;84.93;97654.84;5000015;28;20081;-87
2024/02/11 05:56:04;;;;;;;10.18;6.63;;;10.30;99.90;;;10.41;85.12;97649.50;5033999;28;20045;-87
2024/02/11 05:58:32;;;;;;;12.25;6.60;;;10.30;99.90;;;10.39;85.26;97660.41;5016177;28;20511;-88
2024/02/11 06:01:00;;;;;;;11.60;7.00;;;10.30;99.90;;;10.31;85.80;97669.81;5034112;28;20041;-87
2024/02/11 06:03:28;;;;;;;13.48;7.78;;;10.30;99.90;;;10.26;86.49;97661.06;5033797;28;20057;-88
2024/02/11 06:05:56;;;;;;;10.77;6.65;;;10.30;99.90;;;10.29;86.72;97665.81;5033517;28;20053;-88
2024/02/11 06:08:24;;;;;;;10.98;6.82;;;10.30;99.90;;;10.30;86.83;97668.25;5049384;28;20046;-87
2024/02/11 06:10:51;;;;;;;10.82;7.22;;;10.40;99.90;;;10.31;87.26;97672.47;4999784;28;20563;-87
2024/02/11 06:13:19;;;;;;;10.60;7.25;;;10.40;99.90;;;10.31;87.27;97672.47;5015919;28;20054;-87
2024/02/11 06:15:47;;;;;;;10.77;6.85;;;10.40;99.90;;;10.38;87.52;97682.81;5033425;28;20464;-87
2024/02/11 06:18:14;;;;;;;13.15;6.70;;;10.40;99.90;;;10.37;87.39;97678.56;4983149;28;20048;-87
2024/02/11 06:20:44;;;;;;;14.40;7.72;;;10.40;99.90;;;10.30;87.97;97694.88;5033358;28;20045;-87
2024/02/11 06:23:11;;;;;;;12.05;7.60;;;10.40;99.90;;;10.27;88.79;97705.28;5048754;28;20582;-87
2024/02/11 06:25:39;;;;;;;12.05;7.80;;;10.40;99.90;;;10.26;89.22;97709.03;5033499;28;20596;-87
2024/02/11 06:28:08;;;;;;;9.57;7.05;;;10.40;99.90;;;10.23;89.34;97718.31;5033198;28;20077;-87
2024/02/11 06:30:37;;;;;;;8.40;5.60;;;10.40;99.90;;;10.09;89.82;97730.66;5033582;28;20046;-87
2024/02/11 06:33:10;;;;;;;6.22;4.18;;;10.30;99.90;;;10.02;90.25;97716.88;5033945;28;20132;-87
2024/02/11 06:35:39;;;;;;;5.18;3.45;;;10.20;99.90;;;9.97;89.84;97727.53;5033749;28;20394;-87
2024/02/11 06:38:08;;;;;;;6.00;3.05;;;10.20;99.90;;;9.80;89.88;97739.31;5033478;28;20037;-87
2024/02/11 06:40:36;;;;;;;4.03;2.58;;;10.10;99.90;;;9.77;89.50;97750.53;5032889;28;20485;-87
2024/02/11 06:43:11;;;;;;;4.78;2.25;;;10.00;99.90;;;9.72;89.18;97766.53;4999213;28;20054;-87
2024/02/11 06:45:40;;;;;;;4.32;2.40;;;9.90;99.90;;;9.73;88.94;97764.66;5000603;28;20107;-87
2024/02/11 06:48:09;;;;;;;5.93;3.00;;;9.90;99.90;;;9.74;88.58;97772.34;5032974;28;20053;-87
2024/02/11 06:50:36;;;;;;;5.28;2.88;;;9.90;99.90;;;9.60;87.57;97776.66;5031994;28;20053;-87
2024/02/11 06:53:06;;;;;;;6.18;3.60;;;9.80;99.90;;;9.47;87.40;97783.38;5032010;28;20512;-87
2024/02/11 06:55:35;;;;;;;8.80;4.07;;;9.70;99.90;;;9.43;87.27;97789.50;5033208;28;20049;-88
2024/02/11 06:58:03;;;;;;;9.13;4.70;;;9.60;99.90;;;9.49;87.51;97783.09;5033088;28;20038;-87
2024/02/11 07:00:31;;;;;;;8.60;4.78;;;9.60;99.90;;;9.36;86.30;97796.94;4999414;28;20045;-87
2024/02/11 07:03:02;;;;;;;9.45;5.20;;;9.50;99.90;;;9.35;86.48;97801.47;5033330;28;20124;-87
2024/02/11 07:05:30;;;;;;;12.52;5.22;;;9.50;99.90;;;9.20;85.59;97806.81;5015572;28;20056;-87
2024/02/11 07:07:59;;;;;;;12.38;5.03;;;9.40;99.90;;;9.22;86.18;97805.50;5031234;28;20128;-87
2024/02/11 07:10:28;;;;;;;10.88;4.97;;;9.40;99.90;;;9.33;86.58;97808.94;5015035;28;20467;-87
2024/02/11 07:12:57;;;;;;;9.77;5.10;;;9.40;99.90;;;9.33;86.16;97813.44;4999514;28;20484;-87
2024/02/11 07:15:25;;;;;;;11.02;5.07;;;9.40;99.90;;;9.32;85.60;97809.19;5033389;28;20195;-87
2024/02/11 07:17:53;;;;;;;11.60;5.07;;;9.40;99.90;;;9.29;85.00;97813.19;5032926;28;20073;-87
2024/02/11 07:20:22;;;;;;;15.98;5.25;;;9.40;99.90;;;9.20;85.07;97812.13;5048159;28;20120;-87
2024/02/11 07:22:50;;;;;;;12.77;5.30;;;9.40;99.90;;;9.29;85.31;97818.50;5015362;28;20080;-87
2024/02/11 07:25:18;;;;;;;12.25;4.72;;;9.40;99.90;;;9.32;84.97;97811.84;5032938;28;20052;-87
2024/02/11 07:27:45;;;;;;;7.65;4.28;;;9.40;99.90;;;9.37;84.91;97827.78;5015525;28;20042;-87
2024/02/11 07:30:15;;;;;;;11.35;4.63;;;9.40;99.90;;;9.44;84.43;97825.66;5032723;28;20049;-87
2024/02/11 07:32:44;;;;;;;10.75;4.78;;;9.40;99.90;;;9.39;83.88;97834.44;5048806;28;20042;-87
2024/02/11 07:35:13;;;;;;;12.95;4.20;;;9.40;99.90;;;9.34;83.77;97849.63;5033144;28;20046;-87
2024/02/11 07:37:40;;;;;;;12.52;4.65;;;9.40;99.90;;;9.36;83.98;97855.44;5032729;28;20045;-87
2024/02/11 07:40:11;;;;;;;12.18;4.40;;;9.40;99.90;;;9.36;83.80;97858.13;5015494;28;20568;-87
2024/02/11 07:42:41;;;;;;;10.38;4.43;;;9.40;99.90;;;9.41;83.79;97863.44;5032583;28;20045;-87
2024/02/11 07:45:14;;;;;;;12.15;3.97;;;9.40;99.90;;;9.42;83.47;97873.81;5015232;28;20037;-87
2024/02/11 07:47:47;;;;;;;10.75;3.83;;;9.40;99.90;;;9.43;83.29;97882.59;4999598;28;20049;-87
2024/02/11 07:50:14;;;;;;;11.32;3.67;;;9.40;99.90;;;9.46;83.34;97890.03;5014968;28;20072;-87
2024/02/11 07:52:43;;;;;;;13.20;4.07;;;9.40;99.90;;;9.47;83.35;97891.66;5033886;28;20124;-87
2024/02/11 07:55:11;;;;;;;12.98;3.85;;;9.40;99.90;;;9.45;82.97;97899.06;5036413;28;20075;-87
2024/02/11 07:57:39;;;;;;;14.38;4.10;;;9.40;99.90;;;9.46;82.86;97908.66;5018606;28;20128;-87
2024/02/11 08:00:08;;;;;;;14.93;3.90;;;9.50;99.90;;;9.41;82.46;97898.00;5051467;28;20045;-87
2024/02/11 08:02:35;;;;;;;16.58;3.80;;;9.40;99.90;;;9.36;82.67;97906.78;5036434;28;20053;-87
2024/02/11 08:05:06;;;;;;;15.32;4.05;;;9.40;99.90;;;9.41;82.92;97911.31;5018733;28;20501;-87
2024/02/11 08:07:34;;;;;;;12.05;3.65;;;9.40;99.90;;;9.32;82.26;97916.38;5036071;28;20559;-87
2024/02/11 08:10:01;;;;;;;13.07;3.90;;;9.30;99.90;;;9.28;82.60;97918.78;5051554;28;20045;-87
2024/02/11 08:12:29;;;;;;;15.80;3.72;;;9.30;99.90;;;9.13;82.21;97918.75;4969312;28;20402;-87
2024/02/11 08:14:56;;;;;;;17.52;4.32;;;9.20;99.90;;;9.08;82.70;97923.25;5018026;28;20067;-87
2024/02/11 08:17:26;;;;;;;13.80;3.83;;;9.20;99.90;;;9.11;82.53;97931.50;5035927;28;20038;-87
2024/02/11 08:19:53;;;;;;;16.90;3.88;;;9.30;99.90;;;9.25;82.86;97931.78;5035836;28;20077;-87
2024/02/11 08:22:24;;;;;;;14.50;4.25;;;9.30;99.90;;;9.18;82.70;97932.06;5018100;28;20136;-87
2024/02/11 08:24:51;;;;;;;16.15;4.32;;;9.30;99.90;;;9.25;82.74;97939.78;5035921;28;20409;-87
2024/02/11 08:27:18;;;;;;;14.15;4.47;;;9.30;99.90;;;9.25;82.76;97929.94;5035435;28;20042;-87
2024/02/11 08:29:49;;;;;;;19.77;4.47;;;9.30;99.90;;;9.31;82.73;97935.25;5035371;28;20049;-87
2024/02/11 08:32:16;;;;;;;17.23;4.50;;;9.30;99.90;;;9.25;82.28;97934.44;5018605;28;20051;-87
2024/02/11 08:34:43;;;;;;;15.32;4.80;;;9.30;99.90;;;9.26;82.44;97947.47;5035395;28;20464;-87
2024/02/11 08:37:11;;;;;;;16.23;4.90;;;9.40;99.90;;;9.25;82.50;97951.19;5035522;28;20420;-87
2024/02/11 08:39:40;;;;;;;16.35;4.30;;;9.30;99.90;;;9.32;82.60;97958.13;5001016;28;20053;-87
2024/02/11 08:42:09;;;;;;;19.90;5.00;;;9.40;99.90;;;9.39;82.67;97956.81;5050074;28;20048;-87
2024/02/11 08:44:40;;;;;;;19.08;5.10;;;9.40;99.90;;;9.41;82.44;97962.66;5050930;28;20132;-87
2024/02/11 08:47:09;;;;;;;16.38;5.22;;;9.40;99.90;;;9.23;81.72;97966.63;5035512;28;20160;-87
2024/02/11 08:49:36;;;;;;;13.70;4.82;;;9.40;99.90;;;9.28;82.44;97969.31;5035429;28;20420;-87
2024/02/11 08:52:04;;;;;;;17.67;5.00;;;9.40;99.90;;;9.32;82.63;97979.41;5017444;28;20041;-87
2024/02/11 08:54:33;;;;;;;12.38;4.88;;;9.40;99.90;;;9.39;82.69;97990.59;5050676;28;20049;-87
2024/02/11 08:57:02;;;;;;;16.17;4.55;;;9.40;99.90;;;9.42;82.57;97984.72;5017180;28;20140;-87
2024/02/11 08:59:30;;;;;;;18.27;4.93;;;9.40;99.90;;;9.44;82.29;97994.06;5000969;28;20412;-87
2024/02/11 09:02:00;;;;;;;14.98;4.40;;;9.50;99.90;;;9.49;82.32;97990.59;5034920;28;20505;-87
2024/02/11 09:04:28;;;;;;;14.40;4.63;;;9.50;99.90;;;9.44;82.43;98004.69;5034567;28;20049;-87
2024/02/11 09:06:56;;;;;;;15.43;4.43;;;9.50;99.90;;;9.43;82.47;97999.66;5017379;28;20045;-87
2024/02/11 09:09:27;;;;;;;16.65;5.18;;;9.50;99.90;;;9.41;82.83;98001.75;5017141;28;20520;-87
2024/02/11 09:11:57;;;;;;;16.92;5.35;;;9.50;99.90;;;9.48;82.94;98003.09;5033572;28;20092;-87
2024/02/11 09:14:29;;;;;;;14.13;5.47;;;9.50;99.90;;;9.48;83.11;97999.66;5032673;28;20057;-87
2024/02/11 09:16:58;;;;;;;16.25;5.07;;;9.50;99.90;;;9.50;82.69;98010.81;5017334;28;20284;-88
2024/02/11 09:19:27;;;;;;;13.80;5.00;;;9.60;99.90;;;9.51;82.83;98007.88;5034471;28;20042;-87
2024/02/11 09:21:55;;;;;;;16.70;5.55;;;9.60;99.90;;;9.48;82.92;98011.09;5000575;28;20084;-87
2024/02/11 09:24:24;;;;;;;15.40;5.43;;;9.60;99.90;;;9.49;83.16;98007.34;5033427;28;20106;-87
2024/02/11 09:26:51;;;;;;;15.95;5.80;;;9.60;99.90;;;9.54;83.15;98014.53;5034853;28;20041;-87
2024/02/11 09:29:22;;;;;;;15.82;5.07;;;9.60;99.90;;;9.61;83.27;98019.59;5016818;28;20045;-88
2024/02/11 09:31:51;;;;;;;17.42;5.68;;;9.60;99.90;;;9.61;83.15;98028.38;5034549;28;20076;-87
2024/02/11 09:34:23;;;;;;;11.88;5.40;;;9.70;99.90;;;9.48;83.12;98034.22;5016698;28;20041;-87
2024/02/11 09:36:51;;;;;;;13.43;5.57;;;9.60;99.90;;;9.48;83.32;98026.25;5017060;28;20049;-87
2024/02/11 09:39:18;;;;;;;14.15;5.68;;;9.60;99.90;;;9.56;83.63;98028.38;5049775;28;20045;-87
2024/02/11 09:41:50;;;;;;;15.18;5.97;;;9.60;99.90;;;9.49;83.57;98025.19;5049460;28;20505;-87
2024/02/11 09:44:22;;;;;;;18.00;6.32;;;9.60;99.90;;;9.58;83.86;98025.47;5049179;28;20049;-87
2024/02/11 09:46:55;;;;;;;14.75;6.45;;;9.60;99.90;;;9.65;83.83;98029.44;5032358;28;20476;-87
2024/02/11 09:49:24;;;;;;;17.77;7.00;;;9.70;99.90;;;9.67;84.02;98034.53;5034201;28;20048;-87
2024/02/11 09:51:54;;;;;;;17.63;6.68;;;9.70;99.90;;;9.63;84.20;98033.44;5016776;28;20457;-87
2024/02/11 09:54:24;;;;;;;15.02;6.38;;;9.70;99.90;;;9.64;84.14;98043.81;5033914;28;20087;-87
2024/02/11 09:56:52;;;;;;;16.55;6.50;;;9.70;99.90;;;9.67;84.38;98039.84;5016278;28;20054;-87
2024/02/11 09:59:19;;;;;;;13.23;6.25;;;9.70;99.90;;;9.68;84.04;98042.22;5016092;28;20049;-87
2024/02/11 10:01:49;;;;;;;15.30;6.50;;;9.70;99.90;;;9.65;84.02;98044.63;5016099;28;20045;-87
2024/02/11 10:04:20;;;;;;;18.77;6.85;;;9.70;99.90;;;9.52;83.78;98041.44;5033993;28;20445;-87
2024/02/11 10:06:48;;;;;;;14.32;6.45;;;9.60;99.90;;;9.54;84.00;98057.13;5033602;28;20041;-87
2024/02/11 10:09:18;;;;;;;11.55;5.82;;;9.60;99.90;;;9.60;84.37;98063.25;5016359;28;20112;-87
2024/02/11 10:11:48;;;;;;;13.48;6.20;;;9.60;99.90;;;9.64;84.32;98065.13;4999715;28;20065;-87
2024/02/11 10:14:17;;;;;;;13.88;6.85;;;9.70;99.90;;;9.61;84.36;98059.50;5015609;28;20111;-87
2024/02/11 10:16:44;;;;;;;17.70;6.35;;;9.70;99.90;;;9.56;84.66;98062.97;5048365;28;20496;-87
2024/02/11 10:19:15;;;;;;;13.93;6.47;;;9.60;99.90;;;9.61;84.83;98062.97;5032162;28;20045;-87
2024/02/11 10:21:47;;;;;;;13.90;6.60;;;9.70;99.90;;;9.67;84.87;98059.28;5016327;28;20081;-87
2024/02/11 10:24:17;;;;;;;13.93;5.95;;;9.70;99.90;;;9.66;84.73;98071.00;5032097;28;20079;-87